createdAt,value
2023-03-07T00:00:55.120Z,6.93
2023-03-07T00:03:24.131Z,10.70
2023-03-07T00:06:02.147Z,6.13
2023-03-07T00:08:31.628Z,8.43
2023-03-07T00:11:03.261Z,7.38
2023-03-07T00:13:33.276Z,9.82
2023-03-07T00:16:05.761Z,12.93
2023-03-07T00:18:36.056Z,8.63
2023-03-07T00:21:09.572Z,10.60
2023-03-07T00:23:40.354Z,10.20
2023-03-07T00:26:12.066Z,9.43
2023-03-07T00:28:42.468Z,10.73
2023-03-07T00:31:13.113Z,9.52
2023-03-07T00:33:42.436Z,10.25
2023-03-07T00:36:14.128Z,5.15
2023-03-07T00:38:43.382Z,9.95
2023-03-07T00:41:14.623Z,13.05
2023-03-07T00:46:14.610Z,8.27
2023-03-07T00:48:43.869Z,13.57
2023-03-07T00:51:15.925Z,9.27
2023-03-07T00:53:45.273Z,10.90
2023-03-07T00:56:16.712Z,12.02
2023-03-07T00:58:47.665Z,8.57
2023-03-07T01:01:20.562Z,15.25
2023-03-07T01:03:53.443Z,11.48
2023-03-07T01:06:24.668Z,7.00
2023-03-07T01:08:57.948Z,6.82
2023-03-07T01:11:28.699Z,8.23
2023-03-07T01:13:58.527Z,10.87
2023-03-07T01:16:31.198Z,7.70
2023-03-07T01:19:02.206Z,13.88
2023-03-07T01:24:04.384Z,10.40
2023-03-07T01:26:34.746Z,7.38
2023-03-07T01:29:05.767Z,7.65
2023-03-07T01:31:38.804Z,8.65
2023-03-07T01:34:08.055Z,9.70
2023-03-07T01:36:38.776Z,14.23
2023-03-07T01:39:13.146Z,12.13
2023-03-07T01:41:47.563Z,7.07
2023-03-07T01:44:19.858Z,12.63
2023-03-07T01:46:55.340Z,6.57
2023-03-07T01:49:31.443Z,10.50
2023-03-07T01:52:06.851Z,10.48
2023-03-07T01:54:41.690Z,12.35
2023-03-07T01:57:11.242Z,12.60
2023-03-07T01:59:44.939Z,12.38
2023-03-07T02:02:19.745Z,12.55
2023-03-07T02:04:53.743Z,9.00
2023-03-07T02:07:26.816Z,9.02
2023-03-07T02:09:58.353Z,9.13
2023-03-07T02:12:27.554Z,8.32
2023-03-07T02:14:57.166Z,9.52
2023-03-07T02:17:28.128Z,9.68
2023-03-07T02:20:11.393Z,13.02
2023-03-07T02:22:41.466Z,11.55
2023-03-07T02:25:19.667Z,13.05
2023-03-07T02:27:53.170Z,5.97
2023-03-07T02:30:24.251Z,11.18
2023-03-07T02:32:54.769Z,12.05
2023-03-07T02:35:25.709Z,9.23
2023-03-07T02:38:02.813Z,6.07
2023-03-07T02:40:33.832Z,15.25
2023-03-07T02:43:09.599Z,8.48
2023-03-07T02:45:41.034Z,6.10
2023-03-07T02:48:10.046Z,8.43
2023-03-07T02:50:39.106Z,11.73
2023-03-07T02:53:08.178Z,7.35
2023-03-07T02:55:37.184Z,10.50
2023-03-07T02:58:09.309Z,9.32
2023-03-07T03:00:38.327Z,11.95
2023-03-07T03:03:07.694Z,11.38
2023-03-07T03:05:36.762Z,8.05
2023-03-07T03:08:06.182Z,6.80
2023-03-07T03:10:35.233Z,7.68
2023-03-07T03:13:04.369Z,10.20
2023-03-07T03:15:34.961Z,8.30
2023-03-07T03:18:04.201Z,8.85
2023-03-07T03:20:33.241Z,9.45
2023-03-07T03:23:02.286Z,5.90
2023-03-07T03:25:31.540Z,6.97
2023-03-07T03:28:00.785Z,11.10
2023-03-07T03:30:33.546Z,8.23
2023-03-07T03:33:04.976Z,10.27
2023-03-07T03:35:34.763Z,11.48
2023-03-07T03:38:04.377Z,11.20
2023-03-07T03:40:33.450Z,8.25
2023-03-07T03:43:02.526Z,7.22
2023-03-07T03:45:31.560Z,9.18
2023-03-07T03:48:01.281Z,13.10
2023-03-07T03:50:31.881Z,11.48
2023-03-07T03:53:01.390Z,5.63
2023-03-07T03:55:30.486Z,11.25
2023-03-07T03:58:00.472Z,17.00
2023-03-07T04:00:29.644Z,13.75
2023-03-07T04:02:58.972Z,7.25
2023-03-07T04:05:28.200Z,10.43
2023-03-07T04:07:58.570Z,7.85
2023-03-07T04:10:27.855Z,10.57
2023-03-07T04:12:56.923Z,11.05
2023-03-07T04:15:26.081Z,8.05
2023-03-07T04:17:55.171Z,8.68
2023-03-07T04:20:24.165Z,5.78
2023-03-07T04:22:53.480Z,8.02
2023-03-07T04:25:23.903Z,11.10
2023-03-07T04:27:53.108Z,5.20
2023-03-07T04:30:22.510Z,8.57
2023-03-07T04:32:51.597Z,7.88
2023-03-07T04:35:20.718Z,7.47
2023-03-07T04:37:50.665Z,8.65
2023-03-07T04:40:20.084Z,11.43
2023-03-07T04:42:50.505Z,12.65
2023-03-07T04:45:21.233Z,9.98
2023-03-07T04:47:50.362Z,8.50
2023-03-07T04:50:19.783Z,9.20
2023-03-07T04:52:50.522Z,6.07
2023-03-07T04:55:20.034Z,7.57
2023-03-07T04:57:52.106Z,14.15
2023-03-07T05:00:22.056Z,6.93
2023-03-07T05:02:52.214Z,7.72
2023-03-07T05:05:21.572Z,10.18
2023-03-07T05:07:51.573Z,11.65
2023-03-07T05:10:20.756Z,11.50
2023-03-07T05:12:51.450Z,11.02
2023-03-07T05:15:20.693Z,9.63
2023-03-07T05:17:49.910Z,7.32
2023-03-07T05:20:20.178Z,10.68
2023-03-07T05:22:49.201Z,8.60
2023-03-07T05:25:18.877Z,5.40
2023-03-07T05:27:48.297Z,9.52
2023-03-07T05:30:18.845Z,11.85
2023-03-07T05:32:47.907Z,8.55
2023-03-07T05:35:17.914Z,11.48
2023-03-07T05:37:48.196Z,13.82
2023-03-07T05:40:17.554Z,8.02
2023-03-07T05:42:49.137Z,6.22
2023-03-07T05:45:21.318Z,7.45
2023-03-07T05:47:51.393Z,6.65
2023-03-07T05:50:21.133Z,9.80
2023-03-07T05:52:50.661Z,8.63
2023-03-07T05:55:19.911Z,7.93
2023-03-07T05:57:49.167Z,8.80
2023-03-07T06:00:21.008Z,8.98
2023-03-07T06:02:56.242Z,8.15
2023-03-07T06:05:25.852Z,10.07
2023-03-07T06:07:55.620Z,6.78
2023-03-07T06:10:25.817Z,7.32
2023-03-07T06:12:56.037Z,6.47
2023-03-07T06:15:26.493Z,8.30
2023-03-07T06:18:02.368Z,9.68
2023-03-07T06:20:31.836Z,6.93
2023-03-07T06:23:02.190Z,8.23
2023-03-07T06:25:31.674Z,5.07
2023-03-07T06:28:01.557Z,7.05
2023-03-07T06:30:36.570Z,8.40
2023-03-07T06:33:06.038Z,6.85
2023-03-07T06:35:35.573Z,6.20
2023-03-07T06:38:04.719Z,4.80
2023-03-07T06:40:33.849Z,7.38
2023-03-07T06:43:03.561Z,9.48
2023-03-07T06:45:34.605Z,7.82
2023-03-07T06:48:03.832Z,10.55
2023-03-07T06:50:35.409Z,9.55
2023-03-07T06:53:06.334Z,5.15
2023-03-07T06:55:35.718Z,5.70
2023-03-07T06:58:05.162Z,7.43
2023-03-07T07:00:35.733Z,7.18
2023-03-07T07:03:05.266Z,7.20
2023-03-07T07:05:34.362Z,5.05
2023-03-07T07:08:03.464Z,7.60
2023-03-07T07:10:32.556Z,8.40
2023-03-07T07:13:01.725Z,5.65
2023-03-07T07:15:30.894Z,4.78
2023-03-07T07:18:01.488Z,4.70
2023-03-07T07:20:30.565Z,3.47
2023-03-07T07:22:59.621Z,8.07
2023-03-07T07:25:28.693Z,4.45
2023-03-07T07:27:57.792Z,6.50
2023-03-07T07:30:27.118Z,7.45
2023-03-07T07:32:56.348Z,6.35
2023-03-07T07:35:27.008Z,7.40
2023-03-07T07:37:57.088Z,6.10
2023-03-07T07:40:26.158Z,5.75
2023-03-07T07:42:55.450Z,7.65
2023-03-07T07:45:33.844Z,7.38
2023-03-07T07:48:03.071Z,4.40
2023-03-07T07:50:33.548Z,3.80
2023-03-07T07:53:02.748Z,5.80
2023-03-07T07:55:32.148Z,6.72
2023-03-07T07:58:01.310Z,7.82
2023-03-07T08:00:30.778Z,5.95
2023-03-07T08:03:01.088Z,6.07
2023-03-07T08:05:30.235Z,9.35
2023-03-07T08:08:00.715Z,4.68
2023-03-07T08:10:29.719Z,5.13
2023-03-07T08:12:58.883Z,7.88
2023-03-07T08:15:27.985Z,5.75
2023-03-07T08:17:56.997Z,6.25
2023-03-07T08:20:26.109Z,7.53
2023-03-07T08:22:55.154Z,5.45
2023-03-07T08:25:26.287Z,7.70
2023-03-07T08:30:26.505Z,4.82
2023-03-07T08:32:56.985Z,10.85
2023-03-07T08:35:27.705Z,4.90
2023-03-07T08:40:29.063Z,6.40
2023-03-07T08:42:59.518Z,5.55
2023-03-07T08:45:28.629Z,4.90
2023-03-07T08:47:58.487Z,8.98
2023-03-07T08:50:29.284Z,5.40
2023-03-07T08:52:58.952Z,7.95
2023-03-07T08:55:29.358Z,6.03
2023-03-07T08:57:58.395Z,9.32
2023-03-07T09:00:27.604Z,8.02
2023-03-07T09:02:58.463Z,5.18
2023-03-07T09:05:27.470Z,9.38
2023-03-07T09:07:56.544Z,6.25
2023-03-07T09:10:27.462Z,11.45
2023-03-07T09:12:58.616Z,7.80
2023-03-07T09:17:57.205Z,6.82
2023-03-07T09:20:26.337Z,8.05
2023-03-07T09:22:55.397Z,6.40
2023-03-07T09:25:24.705Z,5.20
2023-03-07T09:27:55.125Z,5.70
2023-03-07T09:30:28.241Z,6.28
2023-03-07T09:32:58.127Z,5.00
2023-03-07T09:35:27.133Z,7.80
2023-03-07T09:37:56.175Z,8.65
2023-03-07T09:40:28.141Z,5.60
2023-03-07T09:43:07.751Z,5.32
2023-03-07T09:48:54.393Z,4.68
2023-03-07T09:51:26.988Z,5.57
2023-03-07T09:53:59.039Z,5.78
2023-03-07T09:56:34.008Z,5.90
2023-03-07T09:59:22.004Z,9.43
2023-03-07T10:02:02.276Z,7.45
2023-03-07T10:04:41.362Z,8.45
2023-03-07T10:07:13.792Z,8.07
2023-03-07T10:09:43.448Z,7.50
2023-03-07T10:12:34.098Z,6.93
2023-03-07T10:15:18.332Z,9.48
2023-03-07T10:18:03.718Z,6.78
2023-03-07T10:20:40.396Z,5.32
2023-03-07T10:23:26.185Z,6.90
2023-03-07T10:25:58.196Z,5.22
2023-03-07T10:28:29.669Z,5.18
2023-03-07T10:31:02.582Z,8.98
2023-03-07T10:33:33.246Z,7.50
2023-03-07T10:36:08.456Z,8.25
2023-03-07T10:38:44.742Z,7.32
2023-03-07T10:41:16.633Z,7.07
2023-03-07T10:43:46.770Z,7.13
2023-03-07T10:46:26.871Z,10.32
2023-03-07T10:49:10.972Z,6.18
2023-03-07T10:51:51.677Z,6.80
2023-03-07T10:54:27.229Z,6.90
2023-03-07T10:57:09.015Z,7.68
2023-03-07T10:59:40.106Z,8.27
2023-03-07T11:02:35.578Z,7.78
2023-03-07T11:05:29.011Z,6.65
2023-03-07T11:07:58.522Z,13.48
2023-03-07T11:10:34.233Z,8.32
2023-03-07T11:13:15.335Z,8.95
2023-03-07T11:15:45.799Z,6.95
2023-03-07T11:18:29.112Z,9.43
2023-03-07T11:21:00.165Z,11.13
2023-03-07T11:23:31.611Z,5.40
2023-03-07T11:26:16.415Z,5.05
2023-03-07T11:28:45.629Z,13.90
2023-03-07T11:31:22.143Z,7.72
2023-03-07T11:33:59.566Z,5.07
2023-03-07T11:36:33.532Z,6.25
2023-03-07T11:39:08.362Z,4.72
2023-03-07T11:41:38.728Z,4.18
2023-03-07T11:44:27.113Z,5.53
2023-03-07T11:47:26.082Z,2.15
2023-03-07T11:50:12.179Z,7.10
2023-03-07T11:53:03.193Z,5.15
2023-03-07T11:55:38.539Z,5.03
2023-03-07T11:58:27.165Z,3.40
2023-03-07T12:01:18.163Z,2.78
2023-03-07T12:04:12.088Z,2.28
2023-03-07T12:06:49.165Z,5.32
2023-03-07T12:09:30.033Z,3.95
2023-03-07T12:12:19.312Z,7.40
2023-03-07T12:14:56.583Z,5.85
2023-03-07T12:17:45.219Z,3.17
2023-03-07T12:20:27.195Z,6.70
2023-03-07T12:23:19.903Z,5.10
2023-03-07T12:25:54.165Z,3.20
2023-03-07T12:28:27.849Z,1.98
2023-03-07T12:31:08.495Z,3.20
2023-03-07T12:34:04.018Z,3.05
2023-03-07T12:36:39.582Z,3.03
2023-03-07T12:39:20.075Z,4.95
2023-03-07T12:42:00.772Z,3.00
2023-03-07T12:44:43.270Z,3.33
2023-03-07T12:47:21.124Z,2.17
2023-03-07T12:49:56.804Z,2.80
2023-03-07T12:52:43.371Z,4.15
2023-03-07T12:55:24.263Z,1.45
2023-03-07T12:58:04.493Z,2.80
2023-03-07T13:00:36.841Z,2.63
2023-03-07T13:03:07.564Z,2.45
2023-03-07T13:05:38.388Z,3.97
2023-03-07T13:08:09.064Z,3.88
2023-03-07T13:10:38.548Z,1.95
2023-03-07T13:13:50.107Z,2.03
2023-03-07T13:19:52.426Z,1.95
2023-03-07T13:22:57.711Z,2.50
2023-03-07T13:25:51.900Z,1.00
2023-03-07T13:28:44.488Z,4.60
2023-03-07T13:31:30.816Z,4.00
2023-03-07T13:34:41.538Z,2.35
2023-03-07T13:37:50.545Z,1.95
2023-03-07T13:40:46.462Z,5.63
2023-03-07T13:43:58.304Z,3.67
2023-03-07T13:46:49.447Z,1.90
2023-03-07T13:49:44.818Z,1.00
2023-03-07T13:52:32.897Z,1.55
2023-03-07T13:55:04.810Z,3.65
2023-03-07T13:57:41.859Z,2.45
2023-03-07T14:00:33.352Z,2.58
2023-03-07T14:05:35.588Z,2.35
2023-03-07T14:08:05.189Z,2.88
2023-03-07T14:10:35.150Z,2.75
2023-03-07T14:13:50.994Z,3.15
2023-03-07T14:16:32.393Z,3.97
2023-03-07T14:19:20.549Z,2.50
2023-03-07T14:21:56.725Z,3.00
2023-03-07T14:24:46.384Z,1.73
2023-03-07T14:27:16.862Z,3.72
2023-03-07T14:29:51.038Z,4.25
2023-03-07T14:32:24.541Z,1.55
2023-03-07T14:34:55.118Z,6.40
2023-03-07T14:37:26.509Z,2.08
2023-03-07T14:40:10.912Z,2.25
2023-03-07T14:42:46.865Z,4.35
2023-03-07T14:45:25.082Z,2.53
2023-03-07T14:48:16.391Z,2.38
2023-03-07T14:50:46.973Z,5.00
2023-03-07T14:53:21.853Z,2.95
2023-03-07T14:55:54.068Z,2.92
2023-03-07T14:58:25.317Z,0.85
2023-03-07T15:03:30.091Z,1.30
2023-03-07T15:06:02.866Z,3.40
2023-03-07T15:08:35.265Z,3.70
2023-03-07T15:11:08.872Z,3.35
2023-03-07T15:13:45.690Z,2.38
2023-03-07T15:16:20.977Z,3.75
2023-03-07T15:18:53.442Z,5.57
2023-03-07T15:21:28.241Z,10.95
2023-03-07T15:23:59.596Z,6.55
2023-03-07T15:26:30.380Z,7.47
2023-03-07T15:29:01.470Z,3.05
2023-03-07T15:34:21.818Z,1.58
2023-03-07T15:36:52.515Z,3.50
2023-03-07T15:39:34.772Z,3.67
2023-03-07T15:42:06.564Z,4.35
2023-03-07T15:44:36.477Z,2.10
2023-03-07T15:47:15.200Z,1.35
2023-03-07T15:49:48.473Z,2.83
2023-03-07T15:52:34.796Z,1.80
2023-03-07T15:55:08.182Z,1.33
2023-03-07T15:57:40.855Z,2.47
2023-03-07T16:00:19.048Z,2.88
2023-03-07T16:02:48.781Z,2.58
2023-03-07T16:05:38.249Z,1.58
2023-03-07T16:08:14.251Z,3.17
2023-03-07T16:10:49.121Z,4.00
2023-03-07T16:13:21.320Z,2.17
2023-03-07T16:16:04.688Z,2.47
2023-03-07T16:18:34.901Z,1.73
2023-03-07T16:21:03.984Z,0.90
2023-03-07T16:23:35.094Z,1.77
2023-03-07T16:26:06.135Z,1.40
2023-03-07T16:28:35.624Z,0.98
2023-03-07T16:31:04.798Z,0.85
2023-03-07T16:33:33.865Z,2.22
2023-03-07T16:36:02.894Z,5.60
2023-03-07T16:38:33.289Z,4.30
2023-03-07T16:41:04.481Z,1.02
2023-03-07T16:46:05.431Z,1.08
2023-03-07T16:48:35.132Z,5.30
2023-03-07T16:51:06.156Z,2.92
2023-03-07T16:53:36.584Z,3.17
2023-03-07T16:56:05.746Z,3.00
2023-03-07T16:58:36.588Z,2.92
2023-03-07T17:01:06.542Z,1.95
2023-03-07T17:03:35.553Z,2.15
2023-03-07T17:06:04.717Z,4.78
2023-03-07T17:08:33.757Z,2.47
2023-03-07T17:11:04.265Z,3.20
2023-03-07T17:13:33.995Z,1.75
2023-03-07T17:16:03.249Z,1.98
2023-03-07T17:18:33.964Z,4.32
2023-03-07T17:21:03.777Z,5.80
2023-03-07T17:23:32.778Z,3.70
2023-03-07T17:26:03.266Z,3.38
2023-03-07T17:28:32.307Z,7.35
2023-03-07T17:31:01.589Z,5.63
2023-03-07T17:33:30.640Z,1.17
2023-03-07T17:36:00.995Z,2.42
2023-03-07T17:38:30.130Z,2.60
2023-03-07T17:40:59.159Z,2.53
2023-03-07T17:43:29.779Z,2.20
2023-03-07T17:45:58.907Z,4.32
2023-03-07T17:48:28.099Z,5.20
2023-03-07T17:50:57.180Z,5.60
2023-03-07T17:53:26.307Z,5.53
2023-03-07T17:55:55.366Z,2.63
2023-03-07T17:58:24.445Z,3.08
2023-03-07T18:00:54.915Z,6.05
2023-03-07T18:03:23.908Z,11.77
2023-03-07T18:05:52.989Z,17.10
2023-03-07T18:08:22.112Z,27.05
2023-03-07T18:10:51.199Z,11.70
2023-03-07T18:13:21.856Z,10.57
2023-03-07T18:15:50.940Z,8.43
2023-03-07T18:18:21.344Z,9.43
2023-03-07T18:20:58.831Z,21.35
2023-03-07T18:23:28.765Z,23.45
2023-03-07T18:25:58.756Z,26.38
2023-03-07T18:28:28.760Z,27.65
2023-03-07T18:31:01.516Z,31.40
2023-03-07T18:33:33.109Z,33.30
2023-03-07T18:36:03.686Z,34.25
2023-03-07T18:38:33.236Z,36.95
2023-03-07T18:41:07.269Z,44.72
2023-03-07T18:43:36.627Z,45.58
2023-03-07T18:46:06.237Z,50.60
2023-03-07T18:48:37.103Z,44.75
2023-03-07T18:51:07.983Z,49.63
2023-03-07T18:53:37.971Z,62.90
2023-03-07T18:56:09.235Z,39.03
2023-03-07T18:58:39.124Z,22.42
2023-03-07T19:01:13.328Z,16.23
2023-03-07T19:03:44.661Z,25.90
2023-03-07T19:06:14.484Z,46.55
2023-03-07T19:08:43.648Z,85.75
2023-03-07T19:11:14.586Z,83.82
2023-03-07T19:13:44.345Z,104.72
2023-03-07T19:16:16.007Z,78.40
2023-03-07T19:18:47.143Z,58.95
2023-03-07T19:21:19.151Z,32.90
2023-03-07T19:23:49.747Z,23.58
2023-03-07T19:26:20.034Z,18.75
2023-03-07T19:28:50.986Z,15.43
2023-03-07T19:31:22.814Z,19.58
2023-03-07T19:33:54.017Z,19.83
2023-03-07T19:38:59.089Z,18.48
2023-03-07T19:41:30.311Z,12.65
2023-03-07T19:46:29.476Z,16.15
2023-03-07T19:49:00.128Z,20.02
2023-03-07T19:51:29.119Z,24.02
2023-03-07T19:54:00.207Z,16.40
2023-03-07T19:56:31.866Z,19.80
2023-03-07T19:59:03.030Z,23.90
2023-03-07T20:04:04.900Z,17.13
2023-03-07T20:06:34.987Z,23.73
2023-03-07T20:09:04.282Z,18.27
2023-03-07T20:11:35.010Z,18.55
2023-03-07T20:14:06.059Z,25.73
2023-03-07T20:16:35.881Z,24.60
2023-03-07T20:19:10.079Z,21.27
2023-03-07T20:21:40.369Z,21.95
2023-03-07T20:24:10.253Z,30.42
2023-03-07T20:26:40.774Z,26.98
2023-03-07T20:29:13.173Z,18.58
2023-03-07T20:31:42.324Z,23.77
2023-03-07T20:34:13.201Z,21.80
2023-03-07T20:36:43.519Z,24.88
2023-03-07T20:39:14.669Z,25.90
2023-03-07T20:41:45.223Z,28.27
2023-03-07T20:44:16.188Z,36.30
2023-03-07T20:46:45.347Z,31.90
2023-03-07T20:49:16.813Z,31.02
2023-03-07T20:51:45.880Z,28.58
2023-03-07T20:54:17.792Z,31.08
2023-03-07T20:56:48.572Z,47.58
2023-03-07T20:59:19.158Z,49.42
2023-03-07T21:01:48.921Z,42.70
2023-03-07T21:04:21.111Z,46.65
2023-03-07T21:06:50.701Z,66.10
2023-03-07T21:09:20.578Z,53.60
2023-03-07T21:11:51.220Z,34.65
2023-03-07T21:14:21.407Z,31.40
2023-03-07T21:16:50.452Z,35.27
2023-03-07T21:19:21.161Z,32.70
2023-03-07T21:21:50.310Z,26.40
2023-03-07T21:24:19.281Z,27.75
2023-03-07T21:26:48.452Z,27.05
2023-03-07T21:29:17.504Z,27.15
2023-03-07T21:31:46.637Z,29.05
2023-03-07T21:34:15.842Z,27.17
2023-03-07T21:36:47.994Z,30.02
2023-03-07T21:39:17.010Z,32.05
2023-03-07T21:41:48.933Z,27.73
2023-03-07T21:44:18.142Z,23.67
2023-03-07T21:46:47.306Z,29.40
2023-03-07T21:49:17.796Z,26.15
2023-03-07T21:51:48.289Z,27.63
2023-03-07T21:54:17.487Z,33.05
2023-03-07T21:56:46.577Z,25.75
2023-03-07T21:59:15.645Z,34.08
2023-03-07T22:01:44.709Z,37.30
2023-03-07T22:04:13.866Z,48.95
2023-03-07T22:06:42.903Z,38.85
2023-03-07T22:09:13.453Z,38.58
2023-03-07T22:11:42.447Z,43.25
2023-03-07T22:14:11.471Z,35.40
2023-03-07T22:16:40.573Z,37.50
2023-03-07T22:19:09.572Z,24.98
2023-03-07T22:21:38.585Z,21.60
2023-03-07T22:24:07.736Z,24.63
2023-03-07T22:26:38.491Z,30.00
2023-03-07T22:29:07.607Z,25.20
2023-03-07T22:31:36.725Z,17.88
2023-03-07T22:34:05.857Z,22.27
2023-03-07T22:36:35.007Z,26.02
2023-03-07T22:39:04.340Z,27.73
2023-03-07T22:41:34.449Z,30.88
2023-03-07T22:44:04.944Z,23.33
2023-03-07T22:46:33.959Z,42.40
2023-03-07T22:49:02.946Z,8.90
2023-03-07T22:51:31.987Z,10.18
2023-03-07T22:54:01.067Z,3.67
2023-03-07T22:56:30.107Z,5.85
2023-03-07T22:58:59.308Z,2.03
2023-03-07T23:01:30.369Z,5.03
2023-03-07T23:04:01.037Z,5.53
2023-03-07T23:06:32.177Z,4.80
2023-03-07T23:11:32.702Z,7.15
2023-03-07T23:14:02.123Z,2.70
2023-03-07T23:16:36.292Z,3.35
2023-03-07T23:19:05.431Z,3.88
2023-03-07T23:21:35.046Z,3.70
2023-03-07T23:24:05.171Z,2.33
2023-03-07T23:26:35.582Z,1.83
2023-03-07T23:29:05.102Z,1.92
2023-03-07T23:31:37.960Z,3.20
2023-03-07T23:34:09.299Z,4.47
2023-03-07T23:36:38.277Z,1.55
2023-03-07T23:39:08.453Z,2.97
2023-03-07T23:41:37.517Z,3.22
2023-03-07T23:44:06.985Z,1.63
2023-03-07T23:46:37.385Z,3.10
2023-03-07T23:49:06.938Z,1.98
2023-03-07T23:51:35.935Z,4.78
2023-03-07T23:54:05.174Z,1.73
2023-03-07T23:56:34.314Z,4.03
2023-03-07T23:59:03.577Z,2.55
